createdAt,value
2023-03-21T00:00:30.147Z,37.55
2023-03-21T00:02:57.104Z,37.55
2023-03-21T00:05:24.177Z,38.10
2023-03-21T00:07:51.940Z,36.88
2023-03-21T00:10:29.701Z,37.33
2023-03-21T00:13:02.258Z,36.10
2023-03-21T00:15:39.939Z,38.15
2023-03-21T00:18:13.251Z,36.78
2023-03-21T00:20:40.146Z,38.38
2023-03-21T00:23:07.043Z,39.25
2023-03-21T00:25:34.002Z,40.50
2023-03-21T00:28:08.413Z,36.55
2023-03-21T00:30:35.725Z,37.83
2023-03-21T00:33:12.013Z,38.95
2023-03-21T00:36:05.881Z,38.35
2023-03-21T00:38:34.663Z,38.42
2023-03-21T00:41:18.878Z,38.53
2023-03-21T00:43:48.177Z,39.45
2023-03-21T00:46:15.501Z,37.80
2023-03-21T00:48:42.514Z,38.97
2023-03-21T00:51:26.560Z,39.78
2023-03-21T00:53:55.585Z,37.83
2023-03-21T00:56:23.094Z,38.05
2023-03-21T00:58:51.183Z,39.78
2023-03-21T01:01:19.376Z,40.38
2023-03-21T01:03:51.164Z,42.95
2023-03-21T01:06:19.670Z,39.15
2023-03-21T01:08:52.109Z,40.35
2023-03-21T01:11:22.904Z,39.60
2023-03-21T01:13:56.142Z,39.20
2023-03-21T01:16:27.206Z,37.70
2023-03-21T01:18:54.267Z,41.22
2023-03-21T01:21:23.339Z,40.97
2023-03-21T01:23:50.721Z,39.95
2023-03-21T01:26:17.879Z,40.25
2023-03-21T01:28:45.385Z,41.95
2023-03-21T01:31:16.083Z,40.33
2023-03-21T01:33:43.673Z,39.53
2023-03-21T01:36:23.704Z,40.78
2023-03-21T01:38:53.839Z,40.22
2023-03-21T01:41:42.879Z,39.13
2023-03-21T01:44:26.368Z,39.47
2023-03-21T01:47:12.169Z,41.00
2023-03-21T01:49:49.770Z,39.97
2023-03-21T01:55:13.100Z,40.30
2023-03-21T01:58:05.487Z,41.25
2023-03-21T02:00:51.859Z,39.75
2023-03-21T02:03:35.684Z,39.80
2023-03-21T02:06:30.325Z,39.50
2023-03-21T02:09:08.749Z,41.83
2023-03-21T02:11:37.407Z,41.75
2023-03-21T02:14:07.621Z,41.30
2023-03-21T02:17:07.732Z,39.65
2023-03-21T02:19:53.302Z,41.17
2023-03-21T02:22:54.120Z,40.08
2023-03-21T02:25:36.601Z,42.33
2023-03-21T02:28:14.306Z,53.65
2023-03-21T02:30:52.164Z,60.50
2023-03-21T02:33:42.393Z,56.85
2023-03-21T02:36:19.215Z,48.20
2023-03-21T02:39:07.974Z,47.33
2023-03-21T02:41:40.395Z,45.47
2023-03-21T02:44:14.244Z,49.05
2023-03-21T02:49:43.019Z,46.50
2023-03-21T02:52:37.472Z,48.15
2023-03-21T02:55:19.671Z,45.95
2023-03-21T02:57:54.785Z,43.92
2023-03-21T03:00:26.196Z,45.28
2023-03-21T03:03:08.196Z,44.20
2023-03-21T03:05:47.291Z,44.35
2023-03-21T03:08:41.236Z,42.95
2023-03-21T03:11:23.092Z,43.83
2023-03-21T03:14:31.590Z,42.35
2023-03-21T03:17:03.552Z,41.65
2023-03-21T03:19:49.964Z,43.00
2023-03-21T03:22:36.044Z,45.05
2023-03-21T03:25:23.018Z,43.78
2023-03-21T03:27:56.121Z,44.78
2023-03-21T03:30:39.265Z,44.72
2023-03-21T03:33:10.472Z,44.53
2023-03-21T03:35:37.679Z,43.30
2023-03-21T03:38:07.813Z,45.15
2023-03-21T03:40:43.832Z,44.78
2023-03-21T03:43:32.075Z,44.05
2023-03-21T03:46:06.309Z,46.28
2023-03-21T03:48:46.389Z,43.25
2023-03-21T03:51:26.198Z,44.10
2023-03-21T03:54:14.702Z,42.53
2023-03-21T03:56:43.249Z,43.22
2023-03-21T03:59:11.963Z,43.03
2023-03-21T04:01:53.695Z,45.85
2023-03-21T04:04:22.801Z,42.53
2023-03-21T04:06:53.971Z,44.17
2023-03-21T04:09:37.196Z,43.10
2023-03-21T04:12:10.144Z,43.90
2023-03-21T04:14:45.783Z,44.65
2023-03-21T04:17:15.783Z,46.00
2023-03-21T04:19:43.102Z,46.28
2023-03-21T04:22:10.778Z,45.83
2023-03-21T04:24:41.953Z,46.33
2023-03-21T04:27:08.920Z,45.80
2023-03-21T04:29:41.420Z,46.97
2023-03-21T04:32:27.236Z,47.28
2023-03-21T04:35:04.106Z,46.83
2023-03-21T04:37:33.807Z,47.42
2023-03-21T04:40:06.736Z,53.22
2023-03-21T04:42:35.116Z,55.03
2023-03-21T04:45:02.458Z,62.28
2023-03-21T04:47:30.152Z,61.20
2023-03-21T04:49:57.414Z,52.55
2023-03-21T04:52:25.534Z,50.75
2023-03-21T04:54:52.664Z,48.22
2023-03-21T04:57:21.404Z,50.38
2023-03-21T04:59:48.355Z,50.28
2023-03-21T05:02:16.044Z,46.53
2023-03-21T05:04:43.584Z,49.20
2023-03-21T05:07:10.804Z,47.88
2023-03-21T05:09:37.875Z,44.30
2023-03-21T05:12:05.481Z,45.45
2023-03-21T05:14:33.628Z,44.50
2023-03-21T05:17:05.210Z,45.10
2023-03-21T05:19:36.266Z,46.25
2023-03-21T05:22:09.238Z,45.35
2023-03-21T05:24:39.300Z,45.80
2023-03-21T05:27:08.965Z,46.38
2023-03-21T05:29:42.659Z,48.05
2023-03-21T05:32:10.929Z,43.53
2023-03-21T05:34:37.812Z,46.30
2023-03-21T05:37:04.702Z,43.80
2023-03-21T05:39:46.278Z,43.78
2023-03-21T05:42:21.090Z,46.00
2023-03-21T05:44:49.101Z,47.17
2023-03-21T05:47:18.488Z,46.55
2023-03-21T05:49:47.562Z,52.22
2023-03-21T05:52:16.280Z,50.63
2023-03-21T05:54:45.328Z,48.58
2023-03-21T05:57:12.656Z,46.65
2023-03-21T05:59:59.912Z,48.13
2023-03-21T06:02:28.475Z,46.58
2023-03-21T06:04:59.626Z,49.65
2023-03-21T06:07:26.879Z,49.50
2023-03-21T06:09:54.050Z,49.22
2023-03-21T06:12:21.268Z,50.33
2023-03-21T06:15:15.399Z,46.60
2023-03-21T06:17:53.009Z,47.15
2023-03-21T06:20:20.115Z,46.80
2023-03-21T06:22:54.800Z,45.50
2023-03-21T06:25:22.138Z,47.15
2023-03-21T06:27:49.382Z,46.55
2023-03-21T06:30:18.340Z,46.35
2023-03-21T06:32:56.900Z,45.40
2023-03-21T06:35:24.005Z,43.95
2023-03-21T06:37:51.029Z,47.13
2023-03-21T06:40:19.458Z,46.17
2023-03-21T06:42:46.445Z,46.70
2023-03-21T06:45:13.999Z,44.38
2023-03-21T06:47:42.541Z,45.35
2023-03-21T06:50:19.018Z,42.92
2023-03-21T06:52:46.016Z,45.72
2023-03-21T06:55:14.164Z,47.08
2023-03-21T06:57:41.654Z,46.40
2023-03-21T07:00:11.551Z,46.05
2023-03-21T07:02:43.233Z,45.08
2023-03-21T07:05:18.801Z,46.63
2023-03-21T07:07:45.781Z,44.88
2023-03-21T07:10:12.747Z,44.08
2023-03-21T07:12:47.873Z,48.28
2023-03-21T07:15:19.758Z,43.33
2023-03-21T07:17:50.193Z,46.35
2023-03-21T07:20:17.406Z,46.25
2023-03-21T07:22:44.524Z,44.30
2023-03-21T07:25:14.450Z,47.80
2023-03-21T07:27:42.259Z,43.67
2023-03-21T07:30:10.447Z,46.15
2023-03-21T07:32:40.364Z,46.58
2023-03-21T07:35:10.949Z,46.35
2023-03-21T07:37:38.324Z,46.75
2023-03-21T07:40:10.721Z,46.97
2023-03-21T07:42:42.578Z,47.92
2023-03-21T07:45:16.593Z,49.13
2023-03-21T07:47:46.506Z,47.53
2023-03-21T07:50:14.205Z,45.67
2023-03-21T07:52:41.437Z,47.05
2023-03-21T07:55:09.076Z,48.85
2023-03-21T07:57:36.615Z,46.97
2023-03-21T08:00:05.355Z,47.92
2023-03-21T08:02:40.202Z,45.70
2023-03-21T08:05:07.387Z,48.00
2023-03-21T08:07:34.434Z,49.65
2023-03-21T08:10:01.405Z,49.65
2023-03-21T08:12:28.296Z,47.95
2023-03-21T08:14:55.244Z,47.40
2023-03-21T08:17:22.302Z,46.38
2023-03-21T08:19:49.233Z,46.08
2023-03-21T08:22:16.327Z,47.30
2023-03-21T08:24:45.883Z,47.03
2023-03-21T08:27:13.109Z,49.58
2023-03-21T08:29:42.296Z,47.85
2023-03-21T08:32:09.396Z,48.40
2023-03-21T08:34:36.577Z,45.55
2023-03-21T08:37:04.285Z,47.20
2023-03-21T08:39:31.313Z,48.78
2023-03-21T08:41:58.251Z,49.65
2023-03-21T08:44:26.042Z,49.13
2023-03-21T08:46:53.224Z,46.45
2023-03-21T08:49:20.160Z,49.13
2023-03-21T08:51:47.397Z,46.13
2023-03-21T08:54:25.735Z,47.80
2023-03-21T08:56:52.857Z,45.17
2023-03-21T08:59:19.887Z,47.85
2023-03-21T09:02:06.062Z,46.10
2023-03-21T09:07:05.208Z,44.63
2023-03-21T09:09:32.222Z,47.63
2023-03-21T09:11:59.785Z,42.88
2023-03-21T09:14:28.885Z,46.55
2023-03-21T09:16:56.169Z,45.33
2023-03-21T09:19:27.252Z,70.00
2023-03-21T09:21:55.787Z,52.38
2023-03-21T09:24:22.844Z,49.42
2023-03-21T09:26:53.011Z,44.28
2023-03-21T09:29:21.403Z,47.78
2023-03-21T09:31:48.753Z,47.40
2023-03-21T09:34:15.902Z,69.78
2023-03-21T09:36:44.438Z,48.15
2023-03-21T09:39:12.774Z,47.75
2023-03-21T09:41:51.702Z,46.13
2023-03-21T09:44:44.562Z,47.53
2023-03-21T09:47:25.088Z,47.58
2023-03-21T09:50:14.927Z,45.33
2023-03-21T09:52:58.442Z,45.58
2023-03-21T09:55:31.069Z,65.43
2023-03-21T09:58:16.665Z,45.63
2023-03-21T10:00:49.441Z,44.30
2023-03-21T10:03:35.130Z,45.90
2023-03-21T10:06:11.313Z,41.55
2023-03-21T10:08:41.494Z,61.47
2023-03-21T10:11:31.294Z,64.78
2023-03-21T10:14:07.329Z,42.63
2023-03-21T10:16:51.950Z,42.10
2023-03-21T10:19:20.321Z,43.28
2023-03-21T10:22:01.317Z,53.03
2023-03-21T10:24:31.258Z,40.00
2023-03-21T10:26:58.613Z,37.83
2023-03-21T10:29:32.240Z,36.55
2023-03-21T10:31:59.495Z,34.58
2023-03-21T10:34:50.961Z,32.47
2023-03-21T10:37:17.926Z,49.22
2023-03-21T10:39:52.167Z,46.42
2023-03-21T10:42:32.826Z,43.08
2023-03-21T10:44:59.938Z,46.75
2023-03-21T10:47:32.529Z,34.42
2023-03-21T10:50:11.144Z,46.40
2023-03-21T10:52:45.525Z,34.25
2023-03-21T10:55:32.127Z,47.95
2023-03-21T10:58:19.134Z,42.47
2023-03-21T11:00:47.679Z,33.47
2023-03-21T11:03:31.430Z,46.17
2023-03-21T11:06:22.587Z,42.85
2023-03-21T11:08:55.366Z,42.28
2023-03-21T11:11:28.117Z,41.85
2023-03-21T11:14:01.056Z,31.35
2023-03-21T11:16:42.087Z,38.53
2023-03-21T11:19:26.674Z,36.80
2023-03-21T11:21:56.437Z,35.97
2023-03-21T11:24:23.574Z,36.05
2023-03-21T11:26:51.389Z,38.95
2023-03-21T11:29:32.852Z,37.63
2023-03-21T11:32:11.764Z,26.95
2023-03-21T11:34:48.405Z,37.35
2023-03-21T11:37:39.458Z,37.70
2023-03-21T11:40:21.029Z,35.95
2023-03-21T11:42:51.826Z,35.30
2023-03-21T11:45:30.901Z,32.92
2023-03-21T11:48:00.280Z,32.38
2023-03-21T11:50:30.520Z,30.83
2023-03-21T11:53:15.534Z,31.33
2023-03-21T11:55:46.387Z,28.98
2023-03-21T11:58:30.742Z,30.95
2023-03-21T12:01:10.087Z,31.25
2023-03-21T12:03:58.820Z,31.98
2023-03-21T12:06:47.680Z,25.58
2023-03-21T12:09:40.969Z,31.45
2023-03-21T12:12:14.892Z,29.48
2023-03-21T12:14:58.318Z,28.17
2023-03-21T12:17:49.180Z,28.55
2023-03-21T12:20:40.926Z,26.60
2023-03-21T12:23:27.436Z,28.25
2023-03-21T12:25:57.978Z,25.65
2023-03-21T12:28:46.273Z,24.95
2023-03-21T12:31:52.090Z,21.83
2023-03-21T12:34:47.272Z,21.27
2023-03-21T12:37:28.338Z,21.33
2023-03-21T12:40:19.284Z,29.02
2023-03-21T12:43:30.953Z,27.80
2023-03-21T12:46:14.169Z,19.40
2023-03-21T12:48:47.726Z,29.92
2023-03-21T12:51:19.125Z,28.55
2023-03-21T12:54:06.022Z,26.75
2023-03-21T12:57:02.171Z,26.95
2023-03-21T12:59:55.527Z,26.75
2023-03-21T13:02:34.827Z,26.55
2023-03-21T13:05:10.513Z,26.25
2023-03-21T13:07:43.397Z,25.88
2023-03-21T13:10:22.406Z,26.17
2023-03-21T13:13:27.124Z,24.77
2023-03-21T13:16:00.429Z,27.52
2023-03-21T13:18:42.228Z,26.35
2023-03-21T13:21:18.144Z,26.65
2023-03-21T13:24:17.315Z,22.45
2023-03-21T13:26:49.993Z,18.90
2023-03-21T13:29:42.553Z,20.85
2023-03-21T13:32:40.668Z,21.75
2023-03-21T13:35:32.696Z,21.60
2023-03-21T13:38:03.132Z,22.85
2023-03-21T13:40:42.867Z,23.05
2023-03-21T13:43:32.861Z,23.52
2023-03-21T13:46:25.498Z,25.45
2023-03-21T13:48:59.704Z,23.48
2023-03-21T13:51:29.797Z,24.75
2023-03-21T13:54:01.648Z,23.00
2023-03-21T13:56:30.579Z,20.70
2023-03-21T13:59:02.440Z,23.75
2023-03-21T14:01:39.804Z,21.63
2023-03-21T14:04:14.854Z,23.15
2023-03-21T14:06:54.789Z,22.10
2023-03-21T14:09:38.214Z,21.30
2023-03-21T14:12:11.430Z,20.88
2023-03-21T14:14:51.402Z,22.10
2023-03-21T14:17:35.220Z,21.58
2023-03-21T14:20:12.301Z,21.38
2023-03-21T14:22:40.516Z,22.35
2023-03-21T14:25:15.569Z,21.73
2023-03-21T14:27:53.613Z,21.83
2023-03-21T14:30:27.486Z,21.00
2023-03-21T14:32:58.969Z,20.25
2023-03-21T14:35:31.309Z,21.55
2023-03-21T14:38:05.391Z,22.00
2023-03-21T14:40:32.318Z,20.45
2023-03-21T14:43:05.876Z,20.48
2023-03-21T14:45:36.928Z,21.15
2023-03-21T14:48:16.420Z,21.67
2023-03-21T14:50:51.738Z,22.27
2023-03-21T14:53:30.863Z,21.25
2023-03-21T14:56:17.744Z,19.80
2023-03-21T14:58:46.183Z,17.50
2023-03-21T15:01:17.452Z,18.55
2023-03-21T15:03:46.238Z,20.67
2023-03-21T15:06:14.283Z,17.95
2023-03-21T15:08:58.158Z,17.90
2023-03-21T15:11:38.798Z,16.73
2023-03-21T15:14:08.357Z,18.60
2023-03-21T15:16:37.184Z,19.65
2023-03-21T15:19:05.249Z,17.88
2023-03-21T15:21:38.184Z,17.33
2023-03-21T15:24:39.957Z,16.63
2023-03-21T15:27:13.735Z,16.23
2023-03-21T15:29:43.246Z,15.18
2023-03-21T15:32:18.288Z,16.60
2023-03-21T15:34:46.245Z,15.50
2023-03-21T15:37:25.534Z,16.33
2023-03-21T15:39:52.998Z,15.18
2023-03-21T15:42:34.033Z,16.05
2023-03-21T15:45:29.148Z,17.13
2023-03-21T15:48:13.095Z,16.40
2023-03-21T15:50:52.184Z,17.25
2023-03-21T15:53:19.657Z,16.38
2023-03-21T15:55:53.059Z,16.95
2023-03-21T15:58:26.770Z,14.93
2023-03-21T16:00:57.161Z,15.77
2023-03-21T16:03:28.354Z,16.80
2023-03-21T16:06:25.677Z,16.77
2023-03-21T16:09:03.388Z,17.63
2023-03-21T16:11:48.174Z,17.33
2023-03-21T16:14:15.148Z,16.80
2023-03-21T16:16:42.745Z,17.77
2023-03-21T16:19:09.773Z,17.75
2023-03-21T16:21:38.502Z,18.83
2023-03-21T16:24:06.505Z,18.42
2023-03-21T16:26:36.895Z,17.85
2023-03-21T16:29:05.534Z,17.40
2023-03-21T16:31:35.760Z,17.98
2023-03-21T16:34:04.663Z,18.23
2023-03-21T16:36:40.227Z,18.08
2023-03-21T16:39:21.582Z,17.88
2023-03-21T16:41:49.089Z,17.52
2023-03-21T16:44:16.410Z,17.77
2023-03-21T16:46:43.586Z,18.38
2023-03-21T16:49:26.838Z,18.40
2023-03-21T16:51:55.833Z,17.05
2023-03-21T16:54:23.276Z,17.52
2023-03-21T16:56:55.522Z,17.40
2023-03-21T16:59:22.493Z,18.02
2023-03-21T17:01:50.663Z,17.58
2023-03-21T17:04:18.908Z,17.48
2023-03-21T17:06:49.308Z,17.48
2023-03-21T17:09:19.866Z,17.20
2023-03-21T17:11:47.508Z,17.83
2023-03-21T17:14:17.964Z,16.95
2023-03-21T17:16:45.824Z,17.50
2023-03-21T17:19:18.774Z,18.00
2023-03-21T17:21:45.852Z,16.65
2023-03-21T17:24:13.546Z,17.10
2023-03-21T17:26:43.629Z,17.85
2023-03-21T17:29:14.244Z,18.40
2023-03-21T17:31:42.435Z,17.60
2023-03-21T17:34:09.728Z,17.98
2023-03-21T17:36:40.965Z,17.70
2023-03-21T17:39:13.716Z,17.45
2023-03-21T17:41:41.321Z,18.67
2023-03-21T17:44:08.233Z,17.80
2023-03-21T17:46:39.745Z,18.63
2023-03-21T17:49:07.323Z,17.83
2023-03-21T17:51:34.785Z,18.95
2023-03-21T17:54:01.946Z,19.35
2023-03-21T17:56:31.764Z,17.98
2023-03-21T17:59:01.451Z,18.30
2023-03-21T18:01:30.805Z,19.25
2023-03-21T18:03:58.634Z,18.10
2023-03-21T18:06:26.812Z,18.33
2023-03-21T18:08:54.926Z,19.10
2023-03-21T18:11:24.107Z,19.65
2023-03-21T18:13:51.610Z,18.88
2023-03-21T18:16:22.470Z,18.73
2023-03-21T18:18:50.926Z,19.63
2023-03-21T18:21:20.192Z,18.27
2023-03-21T18:23:50.622Z,19.73
2023-03-21T18:26:23.845Z,19.80
2023-03-21T18:29:43.875Z,19.60
2023-03-21T18:31:38.289Z,19.52
2023-03-21T18:34:05.351Z,18.92
2023-03-21T18:36:34.758Z,20.30
2023-03-21T18:39:03.486Z,20.00
2023-03-21T18:41:31.095Z,19.70
2023-03-21T18:44:01.256Z,23.00
2023-03-21T18:46:32.895Z,22.23
2023-03-21T18:49:19.943Z,21.42
2023-03-21T18:51:47.942Z,21.58
2023-03-21T18:54:14.992Z,21.77
2023-03-21T18:59:34.544Z,21.90
2023-03-21T19:02:03.226Z,22.13
2023-03-21T19:04:30.629Z,22.45
2023-03-21T19:06:58.617Z,22.50
2023-03-21T19:09:31.317Z,22.90
2023-03-21T19:11:59.724Z,23.02
2023-03-21T19:14:27.035Z,21.30
2023-03-21T19:17:47.222Z,21.95
2023-03-21T19:19:43.654Z,22.58
2023-03-21T19:22:11.351Z,21.80
2023-03-21T19:24:39.647Z,22.80
2023-03-21T19:27:07.088Z,23.00
2023-03-21T19:29:34.268Z,22.58
2023-03-21T19:32:01.425Z,23.27
2023-03-21T19:34:29.386Z,23.38
2023-03-21T19:36:57.521Z,22.65
2023-03-21T19:39:25.125Z,23.27
2023-03-21T19:41:55.415Z,22.60
2023-03-21T19:44:28.532Z,22.02
2023-03-21T19:46:55.485Z,24.33
2023-03-21T19:49:34.601Z,24.00
2023-03-21T19:52:10.204Z,24.27
2023-03-21T19:54:37.777Z,24.75
2023-03-21T19:57:04.765Z,23.85
2023-03-21T19:59:32.149Z,23.00
2023-03-21T20:02:17.922Z,25.60
2023-03-21T20:04:46.672Z,26.52
2023-03-21T20:07:13.605Z,26.90
2023-03-21T20:09:52.235Z,26.25
2023-03-21T20:12:21.933Z,25.52
2023-03-21T20:14:49.280Z,26.23
2023-03-21T20:17:16.924Z,27.45
2023-03-21T20:19:43.955Z,32.25
2023-03-21T20:22:21.971Z,28.60
2023-03-21T20:24:54.124Z,28.42
2023-03-21T20:27:25.075Z,28.20
2023-03-21T20:30:10.072Z,27.77
2023-03-21T20:32:42.090Z,28.03
2023-03-21T20:35:20.746Z,29.27
2023-03-21T20:37:54.415Z,29.42
2023-03-21T20:40:21.919Z,29.63
2023-03-21T20:42:50.295Z,30.52
2023-03-21T20:45:17.527Z,34.85
2023-03-21T20:47:44.602Z,36.67
2023-03-21T20:50:14.059Z,33.47
2023-03-21T20:53:06.497Z,32.58
2023-03-21T20:55:29.714Z,34.20
2023-03-21T20:57:56.681Z,34.83
2023-03-21T21:00:24.518Z,31.88
2023-03-21T21:02:51.891Z,31.70
2023-03-21T21:05:27.852Z,34.38
2023-03-21T21:07:55.226Z,32.40
2023-03-21T21:10:22.477Z,31.90
2023-03-21T21:12:49.422Z,33.40
2023-03-21T21:15:17.007Z,31.38
2023-03-21T21:18:04.884Z,30.65
2023-03-21T21:20:33.608Z,31.35
2023-03-21T21:23:01.024Z,30.08
2023-03-21T21:25:31.727Z,30.52
2023-03-21T21:27:58.713Z,29.42
2023-03-21T21:30:25.644Z,28.70
2023-03-21T21:32:53.938Z,22.85
2023-03-21T21:35:22.431Z,28.20
2023-03-21T21:37:51.136Z,28.63
2023-03-21T21:40:20.588Z,27.75
2023-03-21T21:42:48.017Z,27.92
2023-03-21T21:45:15.853Z,28.27
2023-03-21T21:47:44.566Z,28.00
2023-03-21T21:50:12.618Z,29.45
2023-03-21T21:52:43.452Z,30.52
2023-03-21T21:55:10.488Z,30.05
2023-03-21T21:57:37.540Z,29.00
2023-03-21T22:00:06.927Z,32.60
2023-03-21T22:02:40.149Z,29.27
2023-03-21T22:05:08.844Z,28.63
2023-03-21T22:07:37.493Z,29.20
2023-03-21T22:10:05.186Z,29.45
2023-03-21T22:12:32.373Z,27.92
2023-03-21T22:14:59.503Z,27.63
2023-03-21T22:17:26.557Z,27.55
2023-03-21T22:20:05.063Z,29.65
2023-03-21T22:22:34.090Z,28.70
2023-03-21T22:25:01.086Z,29.02
2023-03-21T22:27:28.085Z,28.88
2023-03-21T22:29:56.010Z,21.60
2023-03-21T22:32:23.021Z,21.40
2023-03-21T22:34:50.044Z,29.73
2023-03-21T22:37:16.978Z,29.63
2023-03-21T22:39:43.973Z,30.50
2023-03-21T22:42:11.015Z,21.25
2023-03-21T22:44:38.295Z,20.65
2023-03-21T22:47:08.265Z,30.45
2023-03-21T22:49:35.822Z,28.02
2023-03-21T22:52:03.528Z,22.23
2023-03-21T22:54:31.006Z,31.30
2023-03-21T22:56:59.592Z,28.75
2023-03-21T22:59:27.392Z,30.13
2023-03-21T23:01:54.758Z,29.95
2023-03-21T23:04:21.864Z,30.08
2023-03-21T23:06:49.190Z,25.30
2023-03-21T23:09:17.532Z,24.50
2023-03-21T23:11:49.051Z,23.00
2023-03-21T23:14:17.769Z,32.58
2023-03-21T23:16:45.114Z,24.23
2023-03-21T23:19:12.200Z,32.42
2023-03-21T23:21:40.112Z,31.27
2023-03-21T23:24:08.397Z,25.38
2023-03-21T23:26:35.766Z,38.65
2023-03-21T23:29:04.346Z,34.25
2023-03-21T23:31:33.093Z,25.38
2023-03-21T23:34:00.664Z,35.13
2023-03-21T23:36:27.866Z,26.00
2023-03-21T23:38:54.835Z,35.50
2023-03-21T23:41:23.533Z,27.65
2023-03-21T23:43:51.288Z,27.70
2023-03-21T23:46:19.372Z,25.17
2023-03-21T23:48:46.732Z,36.22
2023-03-21T23:51:16.789Z,26.23
2023-03-21T23:53:45.535Z,25.67
2023-03-21T23:56:20.790Z,35.90
2023-03-21T23:58:49.802Z,35.25
